Time;durP1;ratioP1;P1;durP2;ratioP2;P2;SDS_P1;SDS_P2;PMS_P1;PMS_P2;Temp;Humidity;BMP_temperature;BMP_pressure;BME280_temperature;BME280_humidity;BME280_pressure;Samples;Min_cycle;Max_cycle;Signal;HPM_P1;HPM_P2
2022/05/13 00:02:30;;;;;;;4.95;2.05;;;;;;;-139.48;100.00;61774.03;4981152;28;20049;-66
2022/05/13 00:05:14;;;;;;;6.07;2.00;;;;;;;-139.48;100.00;61774.03;4995878;28;20064;-66
2022/05/13 00:07:59;;;;;;;5.20;2.30;;;;;;;-139.48;100.00;61774.03;4996067;28;20415;-66
2022/05/13 00:10:43;;;;;;;6.00;2.33;;;;;;;-139.48;100.00;61774.03;4980953;28;20045;-66
2022/05/13 00:13:27;;;;;;;3.88;2.22;;;;;;;-139.48;100.00;61774.03;4995450;28;20092;-66
2022/05/13 00:16:12;;;;;;;3.17;2.05;;;;;;;-139.48;100.00;61774.03;4995359;28;20137;-66
2022/05/13 00:18:56;;;;;;;7.82;2.28;;;;;;;-139.48;100.00;61774.03;4980550;28;20069;-66
2022/05/13 00:21:40;;;;;;;3.17;1.90;;;;;;;-139.48;100.00;61774.03;4980634;28;20064;-66
2022/05/13 00:24:23;;;;;;;4.30;2.22;;;;;;;-139.48;100.00;61774.03;4995271;28;20102;-66
2022/05/13 00:27:08;;;;;;;3.53;2.20;;;;;;;-139.48;100.00;61774.03;4980797;28;20112;-66
2022/05/13 00:29:52;;;;;;;3.05;2.40;;;;;;;-139.48;100.00;61774.03;4994319;28;20108;-66
2022/05/13 00:32:36;;;;;;;6.93;2.25;;;;;;;-139.48;100.00;61774.03;4995579;28;20096;-66
2022/05/13 00:35:22;;;;;;;6.50;2.42;;;;;;;-139.48;100.00;61774.03;4995071;28;20101;-66
2022/05/13 00:38:06;;;;;;;5.72;2.15;;;;;;;-139.48;100.00;61774.03;4995243;28;20137;-66
2022/05/13 00:40:50;;;;;;;3.97;2.40;;;;;;;-139.48;100.00;61774.03;4994822;28;20505;-66
2022/05/13 00:43:48;;;;;;;3.20;2.17;;;;;;;-139.48;100.00;61774.03;4980320;28;20049;-66
2022/05/13 00:46:32;;;;;;;8.70;2.67;;;;;;;-139.48;100.00;61774.03;4994807;28;20092;-66
2022/05/13 00:49:16;;;;;;;3.13;2.15;;;;;;;-139.48;100.00;61774.03;4994872;28;20565;-66
2022/05/13 00:52:01;;;;;;;4.75;1.92;;;;;;;-139.48;100.00;61774.03;4994917;28;20049;-66
2022/05/13 00:54:46;;;;;;;5.20;1.95;;;;;;;-139.48;100.00;61774.03;4980535;28;20096;-66
2022/05/13 00:57:30;;;;;;;5.40;2.20;;;;;;;-139.48;100.00;61774.03;4994911;28;20406;-66
2022/05/13 01:00:15;;;;;;;2.47;2.10;;;;;;;-139.48;100.00;61774.03;4979865;28;20104;-66
2022/05/13 01:03:00;;;;;;;2.75;2.10;;;;;;;-139.48;100.00;61774.03;4994808;28;20045;-66
2022/05/13 01:05:49;;;;;;;2.78;2.00;;;;;;;-139.48;100.00;61774.03;4966717;28;20053;-66
2022/05/13 01:08:35;;;;;;;2.70;1.92;;;;;;;-139.48;100.00;61774.03;4994600;28;20081;-66
2022/05/13 01:11:21;;;;;;;5.55;2.33;;;;;;;-139.48;100.00;61774.03;4994395;28;20041;-66
2022/05/13 01:14:09;;;;;;;3.33;2.08;;;;;;;-139.48;100.00;61774.03;4966569;28;20474;-66
2022/05/13 01:19:56;;;;;;;5.82;2.40;;;;;;;-139.48;100.00;61774.03;4994175;28;20092;-66
2022/05/13 01:22:47;;;;;;;3.78;2.17;;;;;;;-139.48;100.00;61774.03;4994159;28;20422;-66
2022/05/13 01:25:33;;;;;;;5.72;2.42;;;;;;;-139.48;100.00;61774.03;4994135;28;20166;-66
2022/05/13 01:28:21;;;;;;;3.60;2.40;;;;;;;-139.48;100.00;61774.03;4979791;28;20105;-66
2022/05/13 01:31:08;;;;;;;4.78;2.10;;;;;;;-139.48;100.00;61774.03;5008180;22;20116;-66
2022/05/13 01:33:53;;;;;;;3.85;2.40;;;;;;;-139.48;100.00;61774.03;4965937;28;20139;-66
2022/05/13 01:36:39;;;;;;;4.03;2.33;;;;;;;-139.48;100.00;61774.03;4979798;28;20128;-66
2022/05/13 01:39:23;;;;;;;4.50;2.33;;;;;;;-139.48;100.00;61774.03;4993923;28;20085;-67
2022/05/13 01:42:07;;;;;;;5.20;2.30;;;;;;;-139.48;100.00;61774.03;4978408;28;20130;-66
2022/05/13 01:44:51;;;;;;;4.38;2.10;;;;;;;-139.48;100.00;61774.03;4979879;28;20045;-66
2022/05/13 01:47:35;;;;;;;4.28;2.58;;;;;;;-139.48;100.00;61774.03;4993961;28;20045;-66
2022/05/13 01:50:22;;;;;;;6.25;2.40;;;;;;;-139.48;100.00;61774.03;4979169;28;20089;-66
2022/05/13 01:53:07;;;;;;;3.90;2.30;;;;;;;-139.48;100.00;61774.03;4994091;28;20409;-66
2022/05/13 01:55:51;;;;;;;6.35;2.17;;;;;;;-139.48;100.00;61774.03;4965973;28;20147;-66
2022/05/13 01:58:35;;;;;;;4.43;2.60;;;;;;;-139.48;100.00;61774.03;4994131;28;20045;-66
2022/05/13 02:01:19;;;;;;;4.22;2.30;;;;;;;-139.48;100.00;61774.03;4993905;28;20049;-66
2022/05/13 02:04:03;;;;;;;6.18;2.72;;;;;;;-139.48;100.00;61774.03;4965710;28;20053;-66
2022/05/13 02:06:47;;;;;;;6.65;2.78;;;;;;;-139.48;100.00;61774.03;4979048;28;20053;-66
2022/05/13 02:09:31;;;;;;;7.30;2.15;;;;;;;-139.48;100.00;61774.03;4993836;28;20097;-66
2022/05/13 02:12:15;;;;;;;4.80;2.13;;;;;;;-139.48;100.00;61774.03;4979323;28;20049;-66
2022/05/13 02:14:58;;;;;;;;;;;;;;;-139.48;100.00;61774.03;4994106;28;20061;-66
2022/05/13 02:17:43;;;;;;;8.05;2.75;;;;;;;-139.48;100.00;61774.03;4965497;28;19936;-66
2022/05/13 02:20:26;;;;;;;6.07;2.60;;;;;;;-139.48;100.00;61774.03;4993549;28;20053;-66
2022/05/13 02:23:10;;;;;;;4.90;2.35;;;;;;;-139.48;100.00;61774.03;4993629;28;20085;-66
2022/05/13 02:26:01;;;;;;;;;;;;;;;-139.48;100.00;61774.03;4979278;28;20112;-66
2022/05/13 02:28:46;;;;;;;4.97;2.60;;;;;;;-139.48;100.00;61774.03;4979075;28;19920;-66
2022/05/13 02:31:30;;;;;;;4.22;2.22;;;;;;;-139.48;100.00;61774.03;4978868;28;20050;-66
2022/05/13 02:34:14;;;;;;;3.90;2.30;;;;;;;-139.48;100.00;61774.03;4979298;28;20049;-66
2022/05/13 02:36:58;;;;;;;5.43;2.58;;;;;;;-139.48;100.00;61774.03;4993623;28;20104;-66
2022/05/13 02:39:42;;;;;;;9.57;2.75;;;;;;;-139.48;100.00;61774.03;4993367;28;20097;-66
2022/05/13 02:42:26;;;;;;;4.65;2.42;;;;;;;-139.48;100.00;61774.03;4978806;28;20049;-66
2022/05/13 02:45:11;;;;;;;4.38;2.50;;;;;;;-139.48;100.00;61774.03;4979028;28;20128;-66
2022/05/13 02:47:55;;;;;;;4.13;2.20;;;;;;;-139.48;100.00;61774.03;4978965;28;20053;-66
2022/05/13 02:50:39;;;;;;;;;;;;;;;-139.48;100.00;61774.03;4979130;28;20053;-66
2022/05/13 02:53:23;;;;;;;7.03;2.50;;;;;;;-139.48;100.00;61774.03;4981062;28;19920;-66
2022/05/13 02:56:07;;;;;;;6.78;2.30;;;;;;;-139.48;100.00;61774.03;4982686;28;20100;-66
2022/05/13 02:58:51;;;;;;;5.40;2.42;;;;;;;-139.48;100.00;61774.03;4997142;28;20126;-66
2022/05/13 03:01:35;;;;;;;4.35;2.85;;;;;;;-139.48;100.00;61774.03;4982111;28;20054;-66
2022/05/13 03:04:19;;;;;;;4.25;2.53;;;;;;;-139.48;100.00;61774.03;4968379;28;20112;-66
2022/05/13 03:07:03;;;;;;;4.75;2.78;;;;;;;-139.48;100.00;61774.03;4996997;28;20045;-66
2022/05/13 03:09:47;;;;;;;3.88;2.33;;;;;;;-139.48;100.00;61774.03;4996765;28;20112;-66
2022/05/13 03:12:32;;;;;;;8.77;2.88;;;;;;;-139.48;100.00;61774.03;4996919;28;20214;-66
2022/05/13 03:15:15;;;;;;;5.35;2.90;;;;;;;-139.48;100.00;61774.03;4982193;28;20096;-66
2022/05/13 03:17:59;;;;;;;5.63;3.35;;;;;;;-139.48;100.00;61774.03;4968622;28;20473;-66
2022/05/13 03:20:43;;;;;;;7.10;2.55;;;;;;;-139.48;100.00;61774.03;4996475;28;20093;-66
2022/05/13 03:23:28;;;;;;;3.38;2.63;;;;;;;-139.48;100.00;61774.03;4982005;28;20465;-66
2022/05/13 03:26:15;;;;;;;8.30;2.65;;;;;;;-139.48;100.00;61774.03;4996661;28;20045;-66
2022/05/13 03:28:59;;;;;;;3.25;2.50;;;;;;;-139.48;100.00;61774.03;4996346;28;20060;-66
2022/05/13 03:31:43;;;;;;;5.68;3.05;;;;;;;-139.48;100.00;61774.03;4996695;28;20077;-66
2022/05/13 03:34:27;;;;;;;6.85;3.30;;;;;;;-139.48;100.00;61774.03;4981765;28;20057;-66
2022/05/13 03:37:11;;;;;;;7.05;2.90;;;;;;;-139.48;100.00;61774.03;4981797;28;20112;-66
2022/05/13 03:39:55;;;;;;;3.08;2.50;;;;;;;-139.48;100.00;61774.03;4996325;28;20069;-66
2022/05/13 03:42:39;;;;;;;6.75;3.15;;;;;;;-139.48;100.00;61774.03;4967616;28;20198;-66
2022/05/13 03:45:23;;;;;;;8.02;2.83;;;;;;;-139.48;100.00;61774.03;4996327;28;20108;-66
2022/05/13 03:48:08;;;;;;;6.43;2.70;;;;;;;-139.48;100.00;61774.03;4995958;28;20088;-66
2022/05/13 03:50:52;;;;;;;4.30;2.63;;;;;;;-139.48;100.00;61774.03;4981603;28;20084;-66
2022/05/13 03:53:38;;;;;;;5.07;2.65;;;;;;;-139.48;100.00;61774.03;4981168;28;20052;-66
2022/05/13 03:56:23;;;;;;;5.90;2.70;;;;;;;-139.48;100.00;61774.03;4981388;28;20509;-66
2022/05/13 03:59:07;;;;;;;6.75;3.03;;;;;;;-139.48;100.00;61774.03;4995947;28;20057;-66
2022/05/13 04:01:52;;;;;;;4.50;2.75;;;;;;;-139.48;100.00;61774.03;4981214;28;20053;-66
2022/05/13 04:08:56;;;;;;;7.15;3.10;;;;;;;-139.48;100.00;61774.03;4980023;28;20100;-66
2022/05/13 04:10:42;;;;;;;8.25;3.08;;;;;;;-139.48;100.00;61774.03;4983268;28;20049;-66
2022/05/13 04:16:29;;;;;;;8.45;3.15;;;;;;;-139.48;100.00;61774.03;4995489;28;20077;-66
2022/05/13 04:19:13;;;;;;;4.20;2.88;;;;;;;-139.48;100.00;61774.03;4980863;28;20052;-66
2022/05/13 04:21:58;;;;;;;;;;;;;;;-139.48;100.00;61774.03;4967577;28;20049;-66
2022/05/13 04:24:42;;;;;;;7.35;3.03;;;;;;;-139.48;100.00;61774.03;4980511;28;19920;-66
2022/05/13 04:27:27;;;;;;;9.45;3.17;;;;;;;-139.48;100.00;61774.03;4995494;28;20052;-66
2022/05/13 04:30:12;;;;;;;3.60;2.53;;;;;;;-139.48;100.00;61774.03;4966708;28;20052;-66
2022/05/13 04:32:56;;;;;;;6.88;2.80;;;;;;;-139.48;100.00;61774.03;4967058;28;20129;-66
2022/05/13 04:35:40;;;;;;;7.03;2.80;;;;;;;-139.48;100.00;61774.03;4967237;28;20061;-66
2022/05/13 04:38:24;;;;;;;7.40;3.10;;;;;;;-139.48;100.00;61774.03;4995047;28;20520;-66
2022/05/13 04:44:11;;;;;;;7.75;3.40;;;;;;;-139.48;100.00;61774.03;4982912;28;20517;-66
2022/05/13 04:46:55;;;;;;;4.13;2.72;;;;;;;-139.48;100.00;61774.03;4980604;28;20045;-66
2022/05/13 04:49:39;;;;;;;7.28;3.30;;;;;;;-139.48;100.00;61774.03;4966870;28;20056;-66
2022/05/13 04:52:24;;;;;;;6.03;3.22;;;;;;;-139.48;100.00;61774.03;4979990;28;20418;-66
2022/05/13 04:55:09;;;;;;;5.53;3.38;;;;;;;-139.48;100.00;61774.03;4980098;28;20469;-66
2022/05/13 04:57:53;;;;;;;10.13;3.78;;;;;;;-139.48;100.00;61774.03;4994739;28;20121;-67
2022/05/13 05:00:36;;;;;;;6.88;3.10;;;;;;;-139.48;100.00;61774.03;4979784;28;20054;-67
2022/05/13 05:03:22;;;;;;;8.02;3.25;;;;;;;-139.48;100.00;61774.03;4966246;28;20096;-67
2022/05/13 05:06:07;;;;;;;6.10;3.35;;;;;;;-139.48;100.00;61774.03;4980014;28;20077;-67
2022/05/13 05:08:53;;;;;;;7.13;2.90;;;;;;;-139.48;100.00;61774.03;4994505;28;20481;-66
2022/05/13 05:11:37;;;;;;;5.72;2.85;;;;;;;-139.48;100.00;61774.03;4994757;28;20096;-67
2022/05/13 05:14:21;;;;;;;7.40;3.10;;;;;;;-139.48;100.00;61774.03;4994718;28;20632;-67
2022/05/13 05:17:05;;;;;;;5.82;3.28;;;;;;;-139.48;100.00;61774.03;4994383;28;20053;-67
2022/05/13 05:19:49;;;;;;;6.32;3.20;;;;;;;-139.48;100.00;61774.03;4980121;28;20061;-67
2022/05/13 05:22:34;;;;;;;6.75;3.53;;;;;;;-139.48;100.00;61774.03;4994769;28;20105;-67
2022/05/13 05:25:20;;;;;;;4.90;3.22;;;;;;;-139.48;100.00;61774.03;4979732;28;20057;-67
2022/05/13 05:28:04;;;;;;;8.57;3.22;;;;;;;-139.48;100.00;61774.03;4979822;28;20565;-67
2022/05/13 05:30:48;;;;;;;6.80;3.25;;;;;;;-139.48;100.00;61774.03;4993974;28;20517;-67
2022/05/13 05:33:33;;;;;;;11.30;4.10;;;;;;;-139.48;100.00;61774.03;4994107;28;20045;-67
2022/05/13 05:36:17;;;;;;;5.97;3.67;;;;;;;-139.48;100.00;61774.03;4979635;28;20057;-67
2022/05/13 05:39:01;;;;;;;6.45;3.92;;;;;;;-139.48;100.00;61774.03;4965926;28;20057;-67
2022/05/13 05:41:45;;;;;;;4.63;3.20;;;;;;;-139.48;100.00;61774.03;4994134;28;20057;-67
2022/05/13 05:44:29;;;;;;;4.63;3.17;;;;;;;-139.48;100.00;61774.03;4979274;28;20057;-67
2022/05/13 05:47:13;;;;;;;5.22;3.55;;;;;;;-139.48;100.00;61774.03;4994233;28;20524;-67
2022/05/13 05:49:57;;;;;;;5.55;3.20;;;;;;;-139.48;100.00;61774.03;4994024;28;20099;-67
2022/05/13 05:52:42;;;;;;;4.60;3.00;;;;;;;-139.48;100.00;61774.03;4979308;28;20414;-67
2022/05/13 05:58:28;;;;;;;6.80;2.78;;;;;;;-139.48;100.00;61774.03;4994149;28;20056;-67
2022/05/13 06:01:12;;;;;;;;;;;;;;;-139.48;100.00;61774.03;4994103;28;20123;-67
2022/05/13 06:03:57;;;;;;;5.77;3.07;;;;;;;-139.48;100.00;61774.03;4994106;28;19921;-67
2022/05/13 06:06:41;;;;;;;5.32;3.38;;;;;;;-139.48;100.00;61774.03;4993743;28;20049;-67
2022/05/13 06:09:25;;;;;;;6.72;2.97;;;;;;;-139.48;100.00;61774.03;4965571;28;20053;-67
2022/05/13 06:12:10;;;;;;;;;;;;;;;-139.48;100.00;61774.03;4994379;28;20049;-67
2022/05/13 06:14:54;;;;;;;5.20;3.10;;;;;;;-139.48;100.00;61774.03;4979378;28;20481;-67
2022/05/13 06:17:47;;;;;;;5.65;3.22;;;;;;;-139.48;100.00;61774.03;4993692;28;20110;-67
2022/05/13 06:20:31;;;;;;;7.05;3.53;;;;;;;-139.48;100.00;61774.03;4978888;28;20049;-67
2022/05/13 06:23:15;;;;;;;5.35;2.95;;;;;;;-139.48;100.00;61774.03;4993908;28;20126;-67
2022/05/13 06:25:59;;;;;;;7.95;3.60;;;;;;;-139.48;100.00;61774.03;4979116;28;20074;-67
2022/05/13 06:28:43;;;;;;;8.05;3.65;;;;;;;-139.48;100.00;61774.03;4996740;28;20589;-67
2022/05/13 06:31:28;;;;;;;5.03;3.08;;;;;;;-139.48;100.00;61774.03;4982582;28;20092;-67
2022/05/13 06:34:12;;;;;;;6.47;3.40;;;;;;;-139.48;100.00;61774.03;4982854;28;20411;-67
2022/05/13 06:36:56;;;;;;;5.15;3.22;;;;;;;-139.48;100.00;61774.03;4982649;28;20422;-67
2022/05/13 06:39:40;;;;;;;8.10;3.50;;;;;;;-139.48;100.00;61774.03;4982637;28;20105;-67
2022/05/13 06:42:24;;;;;;;6.50;3.45;;;;;;;-139.48;100.00;61774.03;4997363;28;20049;-67
2022/05/13 06:45:09;;;;;;;6.80;3.30;;;;;;;-139.48;100.00;61774.03;4982926;28;20574;-67
2022/05/13 06:47:53;;;;;;;9.40;3.30;;;;;;;-139.48;100.00;61774.03;4969019;28;20125;-67
2022/05/13 06:50:38;;;;;;;5.68;3.40;;;;;;;-139.48;100.00;61774.03;4997069;28;20049;-67
2022/05/13 06:53:23;;;;;;;5.15;3.15;;;;;;;-139.48;100.00;61774.03;4982232;28;20044;-67
2022/05/13 06:56:07;;;;;;;6.50;3.42;;;;;;;-139.48;100.00;61774.03;4968580;28;20054;-67
2022/05/13 06:58:51;;;;;;;12.70;3.08;;;;;;;-139.48;100.00;61774.03;4982150;28;20108;-67
2022/05/13 07:01:36;;;;;;;5.15;3.38;;;;;;;-139.48;100.00;61774.03;4996964;28;20049;-67
2022/05/13 07:04:20;;;;;;;4.57;3.30;;;;;;;-139.48;100.00;61774.03;4982087;28;20049;-67
2022/05/13 07:07:04;;;;;;;4.43;2.90;;;;;;;-139.48;100.00;61774.03;4996817;28;20058;-67
2022/05/13 07:09:48;;;;;;;4.70;3.15;;;;;;;-139.48;100.00;61774.03;4997082;28;20088;-67
2022/05/13 07:12:32;;;;;;;7.72;2.90;;;;;;;-139.48;100.00;61774.03;4982206;28;20124;-67
2022/05/13 07:15:17;;;;;;;;;;;;;;;-139.48;100.00;61774.03;4997329;28;20053;-67
2022/05/13 07:18:01;;;;;;;8.32;3.20;;;;;;;-139.48;100.00;61774.03;4982106;28;19921;-67
2022/05/13 07:20:44;;;;;;;7.30;3.40;;;;;;;-139.48;100.00;61774.03;4981666;28;20457;-67
2022/05/13 07:23:29;;;;;;;;;;;;;;;-139.48;100.00;61774.03;4982225;28;20049;-67
2022/05/13 07:26:13;;;;;;;6.85;3.05;;;;;;;19.81;100.00;101063.94;4982035;28;20440;-67
2022/05/13 07:28:58;;;;;;;;;;;;;;;19.63;100.00;100869.50;4996720;28;20533;-67
2022/05/13 07:31:42;;;;;;;7.38;3.40;;;;;;;19.80;100.00;100875.56;5003572;23;19929;-66
2022/05/13 07:34:26;;;;;;;8.32;3.03;;;;;;;19.81;100.00;100877.22;4996194;28;20476;-67
2022/05/13 07:37:10;;;;;;;6.90;2.67;;;;;;;19.83;100.00;100869.75;4996321;28;20470;-68
2022/05/13 07:42:57;;;;;;;7.40;3.15;;;;;;;19.74;100.00;100877.16;4996245;28;20049;-67
2022/05/13 07:45:41;;;;;;;6.43;3.25;;;;;;;20.04;100.00;100861.72;4981223;28;20053;-67
2022/05/13 07:48:25;;;;;;;4.07;2.50;;;;;;;20.21;100.00;100874.00;4981281;28;20561;-67
2022/05/13 07:51:12;;;;;;;;;;;;;;;20.49;100.00;100883.03;4981804;28;20092;-67
2022/05/13 07:53:59;;;;;;;7.28;3.00;;;;;;;20.47;100.00;100879.69;4981432;28;20281;-67
2022/05/13 07:56:43;;;;;;;5.07;2.95;;;;;;;20.51;100.00;100881.81;4981082;28;20054;-67
2022/05/13 07:59:27;;;;;;;;;;;;;;;20.16;100.00;100876.44;4996494;28;20145;-67
2022/05/13 08:02:11;;;;;;;6.90;3.13;;;;;;;20.18;100.00;100882.47;4996069;28;19924;-67
2022/05/13 08:04:55;;;;;;;9.15;3.30;;;;;;;20.43;100.00;100883.81;4995919;28;20137;-67
2022/05/13 08:07:39;;;;;;;7.72;2.70;;;;;;;20.46;100.00;100884.28;4980958;28;20049;-67
2022/05/13 08:10:24;;;;;;;8.38;2.90;;;;;;;20.55;94.64;100887.69;4995486;28;20053;-67
2022/05/13 08:13:07;;;;;;;5.97;2.40;;;;;;;20.87;92.60;100892.59;4995521;28;20418;-67
2022/05/13 08:15:51;;;;;;;;;;;;;;;20.81;93.44;100887.94;4981241;28;20470;-67
2022/05/13 08:18:36;;;;;;;11.37;2.90;;;;;;;21.15;93.66;100885.34;4980971;28;19964;-67
2022/05/13 08:21:21;;;;;;;8.30;2.85;;;;;;;20.84;100.00;100895.69;4995191;28;20295;-66
2022/05/13 08:24:06;;;;;;;5.05;2.70;;;;;;;20.49;93.25;100893.84;4967148;28;20529;-67
2022/05/13 08:26:52;;;;;;;6.63;2.67;;;;;;;20.92;86.12;100892.88;4995744;28;20073;-67
2022/05/13 08:29:35;;;;;;;7.18;2.38;;;;;;;21.17;77.10;100879.50;4995551;28;20093;-67
2022/05/13 08:32:19;;;;;;;6.72;2.47;;;;;;;20.71;80.19;100898.28;4995270;28;20064;-66
2022/05/13 08:35:04;;;;;;;;;;;;;;;20.76;82.35;100895.81;4995452;28;20052;-67
2022/05/13 08:37:50;;;;;;;5.15;2.10;;;;;;;20.69;78.49;100889.47;4995266;28;19921;-67
2022/05/13 08:40:52;;;;;;;5.07;1.95;;;;;;;20.58;78.50;100893.56;4995012;28;20168;-66
2022/05/13 08:43:46;;;;;;;7.63;1.98;;;;;;;20.78;73.00;100893.72;4994934;28;20107;-67
2022/05/13 08:46:32;;;;;;;5.75;1.92;;;;;;;21.05;67.57;100888.38;4995181;28;20407;-67
2022/05/13 08:49:40;;;;;;;6.05;1.95;;;;;;;21.41;65.89;100887.19;4980095;28;20105;-67
2022/05/13 08:55:42;;;;;;;6.38;1.83;;;;;;;21.61;61.60;100888.13;4994999;28;20052;-67
2022/05/13 08:58:26;;;;;;;4.75;1.80;;;;;;;21.70;59.97;100884.25;4994939;28;20096;-67
2022/05/13 09:01:14;;;;;;;6.93;1.90;;;;;;;21.71;58.24;100891.34;4994869;28;20545;-66
2022/05/13 09:04:02;;;;;;;4.90;1.80;;;;;;;20.88;59.62;100894.28;4980009;28;20132;-67
2022/05/13 09:06:49;;;;;;;3.28;1.70;;;;;;;21.10;57.85;100887.78;4980154;28;20410;-67
2022/05/13 09:09:34;;;;;;;6.25;1.83;;;;;;;21.18;58.95;100886.59;4994638;28;20097;-67
2022/05/13 09:12:43;;;;;;;5.93;1.92;;;;;;;21.04;58.10;100888.59;4980047;28;20061;-67
2022/05/13 09:15:39;;;;;;;5.85;2.03;;;;;;;20.71;58.42;100892.84;4979932;28;20197;-65
2022/05/13 09:18:29;;;;;;;5.88;2.20;;;;;;;20.68;61.13;100893.22;4979619;28;20053;-67
2022/05/13 09:21:16;;;;;;;5.28;1.90;;;;;;;21.11;64.43;100900.28;4994384;28;20511;-66
2022/05/13 09:24:00;;;;;;;6.28;2.03;;;;;;;21.30;58.75;100901.28;4994697;28;20084;-66
2022/05/13 09:26:45;;;;;;;3.20;1.85;;;;;;;21.44;59.82;100891.38;4994282;28;20080;-66
2022/05/13 09:29:44;;;;;;;7.97;1.77;;;;;;;21.17;54.66;100896.81;4994140;28;20143;-66
2022/05/13 09:32:29;;;;;;;3.55;1.50;;;;;;;21.55;55.23;100894.38;4994123;28;20054;-66
2022/05/13 09:35:24;;;;;;;4.28;1.58;;;;;;;21.59;55.45;100895.63;4994090;28;20121;-67
2022/05/13 09:38:18;;;;;;;3.45;1.58;;;;;;;21.76;56.37;100897.03;4979317;28;20466;-67
2022/05/13 09:41:08;;;;;;;6.18;1.90;;;;;;;21.50;53.44;100902.25;4979315;28;20050;-66
2022/05/13 09:44:04;;;;;;;3.17;1.63;;;;;;;21.31;57.22;100896.72;4994216;28;20093;-66
2022/05/13 09:47:11;;;;;;;4.35;1.88;;;;;;;21.88;54.89;100895.41;4994476;28;20068;-67
2022/05/13 09:49:55;;;;;;;4.05;1.85;;;;;;;21.92;51.35;100883.13;4994061;28;20468;-67
2022/05/13 09:52:39;;;;;;;9.38;1.80;;;;;;;22.02;52.84;100878.13;4979457;28;20045;-67
2022/05/13 09:55:47;;;;;;;6.13;1.70;;;;;;;22.15;52.46;100885.50;4979470;28;20053;-67
2022/05/13 09:58:48;;;;;;;4.68;1.65;;;;;;;21.67;52.54;100881.94;4994332;28;20057;-68
2022/05/13 10:01:32;;;;;;;3.60;1.63;;;;;;;22.45;51.60;100887.72;4979336;28;20089;-67
2022/05/13 10:04:21;;;;;;;;;;;;;;;23.35;49.30;100880.63;4998590;28;20530;-69
2022/05/13 10:07:08;;;;;;;4.20;1.50;;;;;;;24.03;46.50;100874.59;4983421;28;19920;-73
2022/05/13 10:16:10;;;;;;;3.25;1.52;;;;;;;32.04;31.01;100873.03;4985792;28;20049;-52
2022/05/13 10:19:00;;;;;;;5.32;1.50;;;;;;;33.02;28.81;100889.31;4983115;28;20121;-51
2022/05/13 10:21:57;;;;;;;2.40;1.25;;;;;;;32.30;31.40;100856.34;4997485;28;20053;-60
2022/05/13 10:24:57;;;;;;;2.53;1.17;;;;;;;31.34;32.70;100851.41;4997775;28;20057;-60
2022/05/13 10:27:49;;;;;;;3.80;1.45;;;;;;;30.35;33.81;100841.13;4997528;28;20057;-58
2022/05/13 10:30:54;;;;;;;2.95;1.17;;;;;;;29.42;35.97;100856.13;4982816;28;20133;-59
2022/05/13 10:33:42;;;;;;;4.75;1.60;;;;;;;28.72;38.72;100852.19;4997324;28;20558;-53
2022/05/13 10:36:38;;;;;;;3.47;1.35;;;;;;;28.16;39.57;100856.88;4997595;28;20089;-57
2022/05/13 10:39:46;;;;;;;4.80;1.45;;;;;;;27.67;40.05;100847.34;4982780;28;20045;-54
2022/05/13 10:43:08;;;;;;;3.38;1.17;;;;;;;27.26;41.46;100852.13;4997359;28;20050;-54
2022/05/13 10:45:52;;;;;;;5.35;1.20;;;;;;;26.98;42.88;100849.22;4997441;28;20145;-54
2022/05/13 10:48:36;;;;;;;;;;;;;;;26.72;43.93;100848.81;4997535;28;20057;-58
2022/05/13 10:51:26;;;;;;;1.52;1.20;;;;;;;26.60;44.98;100846.09;4997011;28;19925;-53
2022/05/13 10:54:26;;;;;;;2.80;1.35;;;;;;;26.46;45.27;100847.31;4982310;28;20513;-58
2022/05/13 10:57:36;;;;;;;10.85;1.67;;;;;;;26.34;45.70;100840.16;4982450;28;20132;-57
2022/05/13 11:00:30;;;;;;;4.10;1.50;;;;;;;26.24;46.30;100839.88;4945820;28;20112;-57
2022/05/13 11:03:20;;;;;;;2.63;1.42;;;;;;;26.13;47.07;100829.72;4997129;28;20075;-53
2022/05/13 11:06:42;;;;;;;4.47;1.27;;;;;;;26.07;47.58;100828.75;4997099;28;20561;-55
2022/05/13 11:09:52;;;;;;;6.85;1.50;;;;;;;26.04;48.50;100831.13;4965795;28;20126;-53
2022/05/13 11:12:43;;;;;;;3.70;1.25;;;;;;;25.99;47.94;100836.41;5000350;28;20065;-53
2022/05/13 11:15:39;;;;;;;3.15;1.23;;;;;;;25.95;44.81;100830.56;4988160;28;20053;-54
2022/05/13 11:19:01;;;;;;;3.63;1.48;;;;;;;25.91;42.60;100834.84;5003581;28;20049;-54
2022/05/13 11:21:53;;;;;;;2.45;1.15;;;;;;;25.90;42.85;100829.59;4988974;28;20088;-53
2022/05/13 11:28:20;;;;;;;3.83;1.23;;;;;;;25.87;41.83;100821.88;4989666;28;20093;-53
2022/05/13 11:31:14;;;;;;;3.88;1.13;;;;;;;25.88;41.80;100826.28;4986233;28;20048;-53
2022/05/13 11:34:19;;;;;;;2.17;0.88;;;;;;;25.86;41.31;100822.91;5001545;28;20054;-54
2022/05/13 11:37:06;;;;;;;3.25;1.40;;;;;;;25.86;40.97;100810.13;5001838;28;20096;-53
2022/05/13 11:40:07;;;;;;;3.65;1.30;;;;;;;25.88;41.02;100812.59;4981463;28;20120;-53
2022/05/13 11:46:03;;;;;;;2.50;1.42;;;;;;;25.92;42.57;100813.84;4983998;28;20438;-53
2022/05/13 11:48:49;;;;;;;2.55;1.42;;;;;;;25.94;43.91;100814.44;4996009;28;20069;-54
2022/05/13 11:51:35;;;;;;;2.60;1.52;;;;;;;25.96;44.42;100815.03;4995885;28;20069;-54
2022/05/13 11:54:22;;;;;;;2.70;1.50;;;;;;;25.98;44.96;100821.94;4995945;28;20068;-52
2022/05/13 11:57:16;;;;;;;2.78;1.30;;;;;;;26.02;45.40;100812.22;4981491;28;20509;-53
2022/05/13 12:00:23;;;;;;;1.25;1.13;;;;;;;26.05;45.72;100808.19;4995742;28;20569;-53
2022/05/13 12:03:11;;;;;;;3.15;1.10;;;;;;;26.08;45.92;100804.97;4992995;28;20518;-55
2022/05/13 12:06:05;;;;;;;2.72;1.60;;;;;;;26.13;45.92;100805.13;4995946;28;20049;-53
2022/05/13 12:08:55;;;;;;;4.25;1.63;;;;;;;26.16;46.35;100808.22;4981544;28;20557;-53
2022/05/13 12:11:57;;;;;;;3.35;1.60;;;;;;;26.21;46.28;100815.72;4980856;28;20108;-52
2022/05/13 12:15:00;;;;;;;3.03;1.48;;;;;;;26.25;46.52;100803.28;4996185;28;20100;-57
2022/05/13 12:17:59;;;;;;;3.38;1.60;;;;;;;26.29;45.50;100799.84;4998379;28;20398;-55
2022/05/13 12:20:51;;;;;;;7.18;1.45;;;;;;;26.32;44.89;100799.38;4995620;28;20057;-52
2022/05/13 12:23:53;;;;;;;7.68;1.67;;;;;;;26.39;45.63;100800.09;4995393;28;20121;-51
2022/05/13 12:26:52;;;;;;;3.83;1.63;;;;;;;26.43;46.00;100803.22;4994946;28;20133;-54
2022/05/13 12:29:42;;;;;;;4.13;1.58;;;;;;;26.47;46.18;100804.41;4995551;28;20054;-53
2022/05/13 12:32:39;;;;;;;3.95;1.40;;;;;;;26.53;46.32;100807.06;4995225;28;20045;-53
2022/05/13 12:39:10;;;;;;;7.00;1.60;;;;;;;26.66;47.09;100797.81;4984739;28;20045;-54
2022/05/13 12:42:09;;;;;;;5.00;1.65;;;;;;;26.71;47.17;100787.84;4994882;28;20134;-55
2022/05/13 12:44:58;;;;;;;6.10;2.00;;;;;;;26.78;47.26;100787.72;4994832;28;20104;-51
2022/05/13 12:48:13;;;;;;;6.25;1.50;;;;;;;26.81;47.10;100781.75;4980151;28;20418;-60
2022/05/13 12:51:16;;;;;;;;;;;;;;;26.82;47.22;100797.09;4973215;28;20089;-60
2022/05/13 12:54:00;;;;;;;4.75;1.50;;;;;;;26.87;47.61;100789.84;4994706;28;19923;-52
2022/05/13 12:56:47;;;;;;;3.33;1.52;;;;;;;26.93;47.42;100780.69;4980365;28;20053;-56
2022/05/13 12:59:34;;;;;;;6.50;1.70;;;;;;;26.97;47.64;100781.06;4979943;28;20479;-53
2022/05/13 13:02:22;;;;;;;5.32;1.70;;;;;;;27.00;47.76;100784.16;4994545;28;20080;-56
2022/05/13 13:05:11;;;;;;;5.47;1.50;;;;;;;27.02;47.88;100785.56;4994867;28;20095;-57
2022/05/13 13:08:04;;;;;;;6.03;1.42;;;;;;;27.06;47.67;100784.03;4980171;28;20462;-53
2022/05/13 13:11:01;;;;;;;4.85;1.58;;;;;;;27.09;47.51;100780.00;4994598;28;20044;-55
2022/05/13 13:13:51;;;;;;;6.45;1.95;;;;;;;27.13;47.75;100784.75;4994710;28;20044;-55
2022/05/13 13:16:45;;;;;;;3.78;1.58;;;;;;;27.15;47.51;100785.38;4979939;28;20050;-55
2022/05/13 13:19:35;;;;;;;3.85;1.33;;;;;;;27.18;47.33;100775.84;4994622;28;20629;-56
2022/05/13 13:22:21;;;;;;;4.55;1.52;;;;;;;27.21;47.33;100778.94;4994507;28;20077;-56
2022/05/13 13:25:09;;;;;;;3.47;1.50;;;;;;;27.25;47.21;100776.53;4979860;28;20069;-56
2022/05/13 13:28:01;;;;;;;4.90;1.52;;;;;;;27.29;47.43;100778.56;4979646;28;20568;-55
2022/05/13 13:30:58;;;;;;;8.73;1.48;;;;;;;27.32;47.41;100766.31;5017305;22;20077;-59
2022/05/13 13:33:48;;;;;;;3.78;1.60;;;;;;;27.33;47.31;100768.78;4994140;28;20048;-57